Time;durP1;ratioP1;P1;durP2;ratioP2;P2;SDS_P1;SDS_P2;PMS_P1;PMS_P2;Temp;Humidity;BMP_temperature;BMP_pressure;BME280_temperature;BME280_humidity;BME280_pressure;Samples;Min_cycle;Max_cycle;Signal;HPM_P1;HPM_P2
2021/03/20 00:02:22;;;;;;;;;;;;;;;5.42;69.31;100591.68;1696531;83;20230;-54
2021/03/20 00:05:28;;;;;;;;;;;;;;;5.43;69.31;100598.81;1697240;84;20636;-54
2021/03/20 00:08:32;;;;;;;;;;;;;;;5.42;69.24;100588.96;1697138;83;20444;-54
2021/03/20 00:11:37;;;;;;;;;;;;;;;5.40;69.37;100591.81;1697118;84;20326;-54
2021/03/20 00:14:41;;;;;;;;;;;;;;;5.41;69.49;100589.94;1696983;84;20571;-54
2021/03/20 00:17:44;;;;;;;;;;;;;;;5.41;69.47;100586.73;1696997;83;20481;-52
2021/03/20 00:20:50;;;;;;;;;;;;;;;5.42;69.59;100591.16;1697079;84;20223;-53
2021/03/20 00:23:55;;;;;;;;;;;;;;;5.40;69.59;100586.39;1697877;82;20279;-52
2021/03/20 00:26:58;;;;;;;;;;;;;;;5.39;69.59;100591.44;1697140;84;20256;-52
2021/03/20 00:30:03;;;;;;;;;;;;;;;5.35;69.59;100581.87;1697710;84;20294;-53
2021/03/20 00:33:09;;;;;;;;;;;;;;;5.33;69.56;100582.49;1697024;83;20242;-53
2021/03/20 00:36:16;;;;;;;;;;;;;;;5.31;69.59;100580.41;1696917;84;20287;-52
2021/03/20 00:39:21;;;;;;;;;;;;;;;5.30;69.62;100585.48;1696303;83;20282;-52
2021/03/20 00:42:25;;;;;;;;;;;;;;;5.26;69.60;100588.12;1696918;83;20246;-53
2021/03/20 00:45:32;;;;;;;;;;;;;;;5.28;69.89;100586.11;1697119;84;20244;-53
2021/03/20 00:48:39;;;;;;;;;;;;;;;5.33;70.02;100588.41;1697010;83;20287;-53
2021/03/20 00:51:44;;;;;;;;;;;;;;;5.37;69.98;100583.09;1696969;84;20302;-53
2021/03/20 00:54:47;;;;;;;;;;;;;;;5.37;69.92;100579.88;1697024;84;20319;-52
2021/03/20 00:57:53;;;;;;;;;;;;;;;5.37;69.83;100579.88;1697010;83;20314;-52
2021/03/20 01:01:06;;;;;;;;;;;;;;;5.41;69.72;100584.52;1696955;84;20220;-52
2021/03/20 01:04:11;;;;;;;;;;;;;;;5.39;69.62;100583.81;1697106;83;20631;-53
2021/03/20 01:07:15;;;;;;;;;;;;;;;5.37;69.57;100583.95;1697136;83;20208;-53
2021/03/20 01:10:25;;;;;;;;;;;;;;;5.38;69.52;100587.50;1697118;84;20295;-54
2021/03/20 01:13:30;;;;;;;;;;;;;;;5.36;69.48;100582.73;1697055;83;20263;-53
2021/03/20 01:16:34;;;;;;;;;;;;;;;5.35;69.42;100583.71;1697161;84;20295;-53
2021/03/20 01:19:40;;;;;;;;;;;;;;;5.28;69.33;100582.56;1697086;84;20252;-53
2021/03/20 01:22:44;;;;;;;;;;;;;;;5.25;69.47;100582.32;1697104;83;20251;-53
2021/03/20 01:25:49;;;;;;;;;;;;;;;5.28;69.46;100579.84;1694140;83;20252;-53
2021/03/20 01:28:54;;;;;;;;;;;;;;;5.26;69.43;100575.05;1687127;84;20256;-53
2021/03/20 01:31:59;;;;;;;;;;;;;;;5.24;69.44;100583.33;1687278;85;20220;-52
2021/03/20 01:35:05;;;;;;;;;;;;;;;5.22;69.41;100579.02;1687471;85;20591;-52
2021/03/20 01:38:10;;;;;;;;;;;;;;;5.22;69.40;100583.09;1687081;84;20208;-52
2021/03/20 01:41:20;;;;;;;;;;;;;;;5.18;69.37;100581.66;1687061;85;20219;-54
2021/03/20 01:44:27;;;;;;;;;;;;;;;5.17;69.42;100585.38;1687204;84;20243;-52
2021/03/20 01:47:32;;;;;;;;;;;;;;;5.14;69.49;100582.42;1687304;84;20538;-52
2021/03/20 01:50:59;;;;;;;;;;;;;;;5.13;69.48;100581.20;1687560;85;20232;-53
2021/03/20 01:54:03;;;;;;;;;;;;;;;5.13;69.48;100583.91;1687300;84;20251;-52
2021/03/20 01:57:06;;;;;;;;;;;;;;;5.09;69.46;100583.84;1687204;85;20272;-52
2021/03/20 02:00:19;;;;;;;;;;;;;;;5.07;69.40;100586.69;1666550;85;20215;-53
2021/03/20 02:03:27;;;;;;;;;;;;;;;5.04;69.58;100580.19;1687236;84;20216;-53
2021/03/20 02:06:34;;;;;;;;;;;;;;;5.01;69.46;100586.37;1687171;85;20251;-52
2021/03/20 02:09:40;;;;;;;;;;;;;;;4.97;69.51;100586.27;1687077;85;20228;-54
2021/03/20 02:12:45;;;;;;;;;;;;;;;4.91;69.53;100586.81;1666918;84;20275;-53
2021/03/20 02:16:04;;;;;;;;;;;;;;;4.84;69.57;100583.77;1687386;85;20248;-54
2021/03/20 02:19:15;;;;;;;;;;;;;;;4.77;69.78;100583.10;1687172;84;20227;-53
2021/03/20 02:22:28;;;;;;;;;;;;;;;4.73;70.23;100588.41;1687082;84;20583;-52
2021/03/20 02:25:40;;;;;;;;;;;;;;;4.77;70.33;100585.81;1687427;85;20204;-53
2021/03/20 02:29:20;;;;;;;;;;;;;;;4.78;70.52;100587.52;1716567;83;20239;-53
2021/03/20 02:32:41;;;;;;;;;;;;;;;4.81;70.66;100580.47;1716421;83;20208;-54
2021/03/20 02:35:54;;;;;;;;;;;;;;;4.78;70.48;100583.45;1716586;83;20219;-54
2021/03/20 02:39:05;;;;;;;;;;;;;;;4.80;70.76;100589.61;1716500;83;20227;-53
2021/03/20 02:42:38;;;;;;;;;;;;;;;4.78;70.63;100589.75;1716605;83;20623;-51
2021/03/20 02:46:03;;;;;;;;;;;;;;;4.76;70.62;100592.24;1716478;83;20204;-53
2021/03/20 02:49:18;;;;;;;;;;;;;;;4.72;70.53;100590.28;1716383;83;20215;-52
2021/03/20 02:52:41;;;;;;;;;;;;;;;4.76;70.83;100590.37;1716578;83;20291;-52
2021/03/20 02:55:52;;;;;;;;;;;;;;;4.82;70.78;100593.05;1716565;83;20248;-52
2021/03/20 02:59:00;;;;;;;;;;;;;;;4.85;70.79;100591.42;1716597;83;20203;-52
2021/03/20 03:02:07;;;;;;;;;;;;;;;4.87;70.68;100591.64;1716584;83;20211;-53
2021/03/20 03:05:21;;;;;;;;;;;;;;;4.86;70.53;100584.51;1716502;83;20219;-52
2021/03/20 03:08:31;;;;;;;;;;;;;;;4.86;70.58;100589.94;1716477;83;20200;-52
2021/03/20 03:11:50;;;;;;;;;;;;;;;4.83;70.43;100589.34;1716515;83;20223;-53
2021/03/20 03:15:05;;;;;;;;;;;;;;;4.77;70.46;100585.81;1716528;83;20216;-53
2021/03/20 03:18:11;;;;;;;;;;;;;;;4.74;70.52;100590.16;1716441;83;20259;-53
2021/03/20 03:21:17;;;;;;;;;;;;;;;4.74;70.60;100591.51;1716578;83;20212;-53
2021/03/20 03:24:22;;;;;;;;;;;;;;;4.75;70.63;100590.50;1716440;83;20214;-53
2021/03/20 03:27:27;;;;;;;;;;;;;;;4.74;70.60;100592.86;1708369;83;20219;-52
2021/03/20 03:30:32;;;;;;;;;;;;;;;4.73;70.57;100588.41;1687221;85;20252;-54
2021/03/20 03:33:39;;;;;;;;;;;;;;;4.72;70.58;100602.97;1687233;84;20224;-53
2021/03/20 03:36:46;;;;;;;;;;;;;;;4.68;70.56;100604.25;1687300;85;20587;-53
2021/03/20 03:39:54;;;;;;;;;;;;;;;4.62;70.50;100606.98;1687348;85;20508;-53
2021/03/20 03:42:59;;;;;;;;;;;;;;;4.61;70.65;100603.39;1687190;84;20255;-52
2021/03/20 03:46:03;;;;;;;;;;;;;;;4.63;70.76;100606.49;1687152;85;20216;-52
2021/03/20 03:49:08;;;;;;;;;;;;;;;4.63;70.73;100606.84;1687318;84;20212;-52
2021/03/20 03:52:13;;;;;;;;;;;;;;;4.65;70.70;100613.48;1687131;84;20260;-54
2021/03/20 03:55:17;;;;;;;;;;;;;;;4.67;70.67;100614.70;1687406;85;20224;-51
2021/03/20 03:58:25;;;;;;;;;;;;;;;4.68;70.64;100606.96;1687231;84;20196;-51
2021/03/20 04:01:46;;;;;;;;;;;;;;;4.68;70.57;100603.73;1687167;85;20243;-52
2021/03/20 04:05:09;;;;;;;;;;;;;;;4.68;70.63;100606.44;1687416;85;20282;-52
2021/03/20 04:08:38;;;;;;;;;;;;;;;4.71;70.64;100608.05;1687318;84;20252;-53
2021/03/20 04:11:46;;;;;;;;;;;;;;;4.75;70.62;100615.78;1687093;85;20211;-52
2021/03/20 04:15:15;;;;;;;;;;;;;;;4.78;70.60;100609.21;1687270;84;20256;-53
2021/03/20 04:18:36;;;;;;;;;;;;;;;4.78;70.39;100610.08;1687231;84;20208;-54
2021/03/20 04:21:46;;;;;;;;;;;;;;;4.73;70.41;100610.10;1687147;85;20212;-52
2021/03/20 04:24:52;;;;;;;;;;;;;;;4.72;70.54;100609.27;1687164;85;20251;-53
2021/03/20 04:28:00;;;;;;;;;;;;;;;4.68;70.42;100615.93;1687521;82;20200;-53
2021/03/20 04:31:07;;;;;;;;;;;;;;;4.69;70.61;100612.73;1716571;83;20220;-52
2021/03/20 04:34:25;;;;;;;;;;;;;;;4.71;70.62;100614.83;1683105;84;20590;-53
2021/03/20 04:37:34;;;;;;;;;;;;;;;4.75;70.63;100621.20;1684165;84;20215;-53
2021/03/20 04:40:51;;;;;;;;;;;;;;;4.75;70.57;100622.55;1684153;85;20348;-53
2021/03/20 04:43:55;;;;;;;;;;;;;;;4.75;70.52;100624.39;1684139;84;20199;-54
2021/03/20 04:47:02;;;;;;;;;;;;;;;4.78;70.50;100634.97;1684184;85;20203;-54
2021/03/20 04:50:08;;;;;;;;;;;;;;;4.72;70.51;100630.09;1684010;85;20202;-53
2021/03/20 04:53:12;;;;;;;;;;;;;;;4.76;70.71;100631.04;1684076;84;20314;-54
2021/03/20 04:56:18;;;;;;;;;;;;;;;4.79;70.64;100636.20;1684021;85;20227;-53
2021/03/20 04:59:44;;;;;;;;;;;;;;;4.76;70.70;100639.17;1684047;84;20211;-52
2021/03/20 05:02:53;;;;;;;;;;;;;;;4.81;70.75;100638.77;1684090;84;20214;-53
2021/03/20 05:06:10;;;;;;;;;;;;;;;4.86;70.72;100640.11;1684072;85;20231;-53
2021/03/20 05:09:14;;;;;;;;;;;;;;;4.91;70.69;100640.58;1697748;84;20239;-54
2021/03/20 05:12:27;;;;;;;;;;;;;;;4.97;70.53;100635.09;1686219;84;20254;-52
2021/03/20 05:15:34;;;;;;;;;;;;;;;5.01;70.45;100644.17;1683733;85;20572;-52
2021/03/20 05:18:37;;;;;;;;;;;;;;;5.06;70.38;100646.00;1686454;84;20337;-52
2021/03/20 05:21:43;;;;;;;;;;;;;;;5.13;70.31;100647.67;1683437;85;20209;-52
2021/03/20 05:24:47;;;;;;;;;;;;;;;5.17;70.16;100646.43;1686101;85;20574;-53
2021/03/20 05:27:50;;;;;;;;;;;;;;;5.25;70.15;100647.98;1683968;84;20245;-53
2021/03/20 05:30:55;;;;;;;;;;;;;;;5.32;70.05;100645.06;1684388;83;20256;-54
2021/03/20 05:34:01;;;;;;;;;;;;;;;5.42;69.99;100654.11;1682404;84;20349;-53
2021/03/20 05:37:07;;;;;;;;;;;;;;;5.51;69.91;100650.08;1690063;85;20291;-53
2021/03/20 05:40:27;;;;;;;;;;;;;;;5.58;69.83;100657.19;1681655;85;20473;-54
2021/03/20 05:43:38;;;;;;;;;;;;;;;5.65;69.86;100652.91;1681721;84;20222;-52
2021/03/20 05:46:58;;;;;;;;;;;;;;;5.64;69.65;100650.70;1690593;85;20584;-53
2021/03/20 05:50:44;;;;;;;;;;;;;;;5.70;69.75;100650.64;1682087;85;20220;-53
2021/03/20 05:54:06;;;;;;;;;;;;;;;5.80;69.69;100665.11;1681866;84;20220;-53
2021/03/20 05:57:25;;;;;;;;;;;;;;;5.81;69.44;100659.54;1690530;85;20314;-54
2021/03/20 06:00:32;;;;;;;;;;;;;;;5.91;69.53;100661.80;1681539;85;20207;-53
2021/03/20 06:03:49;;;;;;;;;;;;;;;5.99;69.41;100657.87;1690728;83;20264;-54
2021/03/20 06:07:13;;;;;;;;;;;;;;;6.12;69.34;100660.85;1691406;84;20198;-53
2021/03/20 06:10:38;;;;;;;;;;;;;;;6.23;69.19;100656.64;1713189;84;20200;-53
2021/03/20 06:13:53;;;;;;;;;;;;;;;6.27;69.07;100668.45;1711594;84;20244;-52
2021/03/20 06:17:22;;;;;;;;;;;;;;;6.30;68.97;100666.80;1713396;84;20219;-54
2021/03/20 06:20:50;;;;;;;;;;;;;;;6.31;68.97;100667.15;1749397;82;20186;-53
2021/03/20 06:24:10;;;;;;;;;;;;;;;6.38;68.91;100671.52;1749709;82;20279;-53
2021/03/20 06:27:17;;;;;;;;;;;;;;;6.42;68.80;100668.89;1749460;82;20237;-52
2021/03/20 06:30:40;;;;;;;;;;;;;;;6.46;68.77;100677.98;1747178;80;20377;-52
2021/03/20 06:34:08;;;;;;;;;;;;;;;6.50;68.89;100672.59;1725438;83;20541;-52
2021/03/20 06:37:18;;;;;;;;;;;;;;;6.64;68.95;100672.69;1725365;83;20571;-53
2021/03/20 06:40:40;;;;;;;;;;;;;;;6.75;68.85;100677.98;1725683;82;20336;-53
2021/03/20 06:43:48;;;;;;;;;;;;;;;6.84;68.57;100679.82;1727968;82;20227;-53
2021/03/20 06:46:51;;;;;;;;;;;;;;;6.93;68.27;100684.41;1726882;82;20634;-53
2021/03/20 06:50:13;;;;;;;;;;;;;;;7.00;67.42;100679.59;1725249;83;20215;-55
2021/03/20 06:53:19;;;;;;;;;;;;;;;7.04;66.95;100675.56;1724668;83;20274;-52
2021/03/20 06:56:23;;;;;;;;;;;;;;;7.09;66.57;100677.84;1725230;82;20242;-53
2021/03/20 06:59:30;;;;;;;;;;;;;;;7.08;66.29;100677.00;1711685;82;20212;-53
2021/03/20 07:02:56;;;;;;;;;;;;;;;7.14;65.77;100676.91;1724910;83;20698;-54
2021/03/20 07:06:18;;;;;;;;;;;;;;;7.13;65.40;100678.79;1701751;84;20584;-53
2021/03/20 07:09:24;;;;;;;;;;;;;;;7.15;65.49;100682.20;1700747;84;20249;-53
2021/03/20 07:12:30;;;;;;;;;;;;;;;7.20;65.27;100685.34;1724233;82;20641;-53
2021/03/20 07:15:34;;;;;;;;;;;;;;;7.30;65.35;100675.30;1724230;83;20289;-54
2021/03/20 07:18:44;;;;;;;;;;;;;;;7.46;65.13;100679.62;1724541;83;20269;-53
2021/03/20 07:21:50;;;;;;;;;;;;;;;7.61;64.62;100683.56;1724244;83;20213;-53
2021/03/20 07:24:54;;;;;;;;;;;;;;;7.60;63.67;100688.66;1695886;84;20618;-54
2021/03/20 07:28:00;;;;;;;;;;;;;;;7.69;63.85;100681.97;1694526;83;20212;-52
2021/03/20 07:31:19;;;;;;;;;;;;;;;7.85;63.68;100687.63;1696686;81;20295;-53
2021/03/20 07:34:28;;;;;;;;;;;;;;;7.93;62.84;100685.01;1723389;82;20215;-52
2021/03/20 07:37:34;;;;;;;;;;;;;;;8.02;62.34;100688.17;1701490;82;20239;-52
2021/03/20 07:40:39;;;;;;;;;;;;;;;8.15;61.43;100690.05;1725495;83;20216;-52
2021/03/20 07:43:42;;;;;;;;;;;;;;;8.24;60.79;100692.74;1726311;82;20247;-53
2021/03/20 07:46:47;;;;;;;;;;;;;;;8.30;60.44;100693.98;1725277;83;20207;-52
2021/03/20 07:49:53;;;;;;;;;;;;;;;8.33;60.13;100694.54;1726052;83;20528;-54
2021/03/20 07:53:19;;;;;;;;;;;;;;;8.33;59.98;100693.67;1740063;82;20216;-54
2021/03/20 07:56:36;;;;;;;;;;;;;;;8.33;59.80;100695.03;1712759;83;20293;-53
2021/03/20 07:59:41;;;;;;;;;;;;;;;8.35;60.03;100696.61;1701230;83;20224;-53
2021/03/20 08:02:46;;;;;;;;;;;;;;;8.35;59.80;100691.16;1712424;82;20273;-53
2021/03/20 08:05:51;;;;;;;;;;;;;;;8.38;59.86;100687.25;1760080;80;20275;-53
2021/03/20 08:08:54;;;;;;;;;;;;;;;8.51;59.58;100702.25;1725669;82;20277;-54
2021/03/20 08:12:08;;;;;;;;;;;;;;;8.56;59.38;100697.16;1654179;86;20673;-53
2021/03/20 08:15:15;;;;;;;;;;;;;;;8.51;59.03;100701.37;1681728;85;20725;-54
2021/03/20 08:18:32;;;;;;;;;;;;;;;8.52;58.84;100700.36;1684066;84;20212;-53
2021/03/20 08:21:42;;;;;;;;;;;;;;;8.54;58.70;100695.61;1722681;83;20219;-53
2021/03/20 08:24:56;;;;;;;;;;;;;;;8.68;58.63;100694.56;1712273;82;20201;-54
2021/03/20 08:28:23;;;;;;;;;;;;;;;8.77;58.13;100694.11;1714201;82;20260;-53
2021/03/20 08:31:37;;;;;;;;;;;;;;;8.82;58.12;100693.14;1728703;83;20223;-53
2021/03/20 08:35:05;;;;;;;;;;;;;;;8.85;57.89;100693.69;1728187;83;20595;-53
2021/03/20 08:38:38;;;;;;;;;;;;;;;8.91;57.86;100700.41;1745008;81;20226;-53
2021/03/20 08:42:11;;;;;;;;;;;;;;;8.91;57.70;100694.95;1744573;82;20217;-53
2021/03/20 08:45:33;;;;;;;;;;;;;;;8.97;57.82;100698.41;1673514;85;20259;-54
2021/03/20 08:48:41;;;;;;;;;;;;;;;9.01;57.46;100697.93;1745436;81;20558;-53
2021/03/20 08:51:54;;;;;;;;;;;;;;;8.95;57.42;100697.20;1741755;80;20214;-53
2021/03/20 08:55:21;;;;;;;;;;;;;;;8.85;58.09;100699.15;1689559;85;20317;-52
2021/03/20 08:58:50;;;;;;;;;;;;;;;8.74;58.36;100708.94;1713006;82;20305;-52
2021/03/20 09:02:07;;;;;;;;;;;;;;;8.76;58.54;100706.05;1752812;82;20233;-54
2021/03/20 09:05:28;;;;;;;;;;;;;;;8.65;58.54;100709.02;1705854;84;20266;-53
2021/03/20 09:08:43;;;;;;;;;;;;;;;8.70;58.94;100704.83;1726013;82;20216;-55
2021/03/20 09:11:53;;;;;;;;;;;;;;;8.92;58.17;100706.20;1750262;82;20320;-53
2021/03/20 09:15:03;;;;;;;;;;;;;;;9.05;57.54;100705.30;1709807;83;20699;-54
2021/03/20 09:18:10;;;;;;;;;;;;;;;9.17;57.45;100703.16;1713967;81;20263;-53
2021/03/20 09:21:13;;;;;;;;;;;;;;;9.19;57.04;100710.19;1706457;83;20219;-53
2021/03/20 09:24:23;;;;;;;;;;;;;;;9.21;56.47;100706.80;1691797;83;20244;-52
2021/03/20 09:28:04;;;;;;;;;;;;;;;9.13;56.83;100703.14;1707783;83;20219;-53
2021/03/20 09:31:39;;;;;;;;;;;;;;;9.12;56.54;100707.73;1689362;85;20293;-53
2021/03/20 09:34:47;;;;;;;;;;;;;;;9.18;56.53;100700.26;1688170;82;20233;-52
2021/03/20 09:38:00;;;;;;;;;;;;;;;9.21;56.23;100699.97;1692415;85;20633;-53
2021/03/20 09:41:04;;;;;;;;;;;;;;;9.36;56.08;100696.98;1717374;82;20317;-52
2021/03/20 09:44:11;;;;;;;;;;;;;;;9.53;54.80;100689.77;1749138;80;20503;-53
2021/03/20 09:47:20;;;;;;;;;;;;;;;9.67;54.37;100692.73;1745686;80;20209;-54
2021/03/20 09:50:29;;;;;;;;;;;;;;;9.82;54.17;100695.22;1732851;82;20598;-54
2021/03/20 09:53:39;;;;;;;;;;;;;;;9.89;53.54;100690.82;1748075;80;20549;-54
2021/03/20 09:56:43;;;;;;;;;;;;;;;10.00;53.85;100696.00;1749511;80;20347;-53
2021/03/20 09:59:53;;;;;;;;;;;;;;;9.97;53.43;100690.83;1749456;81;20568;-53
2021/03/20 10:03:01;;;;;;;;;;;;;;;9.95;53.09;100690.66;1768377;79;20646;-53
2021/03/20 10:06:34;;;;;;;;;;;;;;;9.98;52.78;100699.40;1739160;82;20541;-53
2021/03/20 10:09:40;;;;;;;;;;;;;;;9.88;52.10;100699.16;1720474;83;20291;-53
2021/03/20 10:12:48;;;;;;;;;;;;;;;9.91;51.90;100696.12;1701861;82;20237;-53
2021/03/20 10:16:06;;;;;;;;;;;;;;;10.02;52.22;100693.93;1739569;82;20213;-53
2021/03/20 10:19:18;;;;;;;;;;;;;;;10.09;52.41;100695.03;1739347;81;20209;-53
2021/03/20 10:22:36;;;;;;;;;;;;;;;10.14;52.74;100691.80;1742733;82;20533;-53
2021/03/20 10:25:42;;;;;;;;;;;;;;;10.27;52.96;100690.32;1748222;82;20686;-52
2021/03/20 10:28:48;;;;;;;;;;;;;;;10.40;52.44;100691.20;1748408;82;20212;-53
2021/03/20 10:31:55;;;;;;;;;;;;;;;10.41;52.54;100688.80;1740532;82;20590;-54
2021/03/20 10:35:04;;;;;;;;;;;;;;;10.29;51.58;100690.98;1735448;81;20793;-54
2021/03/20 10:38:26;;;;;;;;;;;;;;;10.23;51.34;100688.92;1708866;84;20208;-53
2021/03/20 10:41:32;;;;;;;;;;;;;;;10.19;51.05;100687.55;1708079;84;20229;-54
2021/03/20 10:44:48;;;;;;;;;;;;;;;10.10;51.05;100685.80;1709163;83;20205;-53
2021/03/20 10:47:51;;;;;;;;;;;;;;;10.00;51.91;100691.90;1708166;84;20210;-54
2021/03/20 10:50:57;;;;;;;;;;;;;;;9.92;52.30;100681.42;1708536;84;20221;-54
2021/03/20 10:54:05;;;;;;;;;;;;;;;9.78;52.45;100687.02;1708774;84;20247;-54
2021/03/20 10:57:16;;;;;;;;;;;;;;;9.40;53.11;100682.50;1708718;84;20214;-54
2021/03/20 11:00:27;;;;;;;;;;;;;;;9.02;54.27;100693.34;1708526;84;20238;-53
2021/03/20 11:03:42;;;;;;;;;;;;;;;8.79;55.29;100691.59;1708333;84;20249;-58
2021/03/20 11:06:52;;;;;;;;;;;;;;;8.69;56.02;100694.03;1707982;84;20626;-53
2021/03/20 11:09:55;;;;;;;;;;;;;;;8.50;56.45;100700.52;1707507;84;20526;-53
2021/03/20 11:13:01;;;;;;;;;;;;;;;8.09;57.47;100697.45;1706691;84;20203;-53
2021/03/20 11:16:14;;;;;;;;;;;;;;;7.63;58.17;100696.54;1680349;85;20244;-53
2021/03/20 11:19:27;;;;;;;;;;;;;;;7.36;59.44;100695.13;1680350;84;20217;-53
2021/03/20 11:22:42;;;;;;;;;;;;;;;7.28;60.37;100705.89;1681142;84;20263;-53
2021/03/20 11:25:50;;;;;;;;;;;;;;;7.35;60.88;100699.36;1680883;85;20212;-52
2021/03/20 11:28:54;;;;;;;;;;;;;;;7.42;60.82;100695.88;1681542;84;20243;-52
2021/03/20 11:32:01;;;;;;;;;;;;;;;7.42;60.78;100695.05;1682086;85;20288;-54
2021/03/20 11:35:43;;;;;;;;;;;;;;;7.44;61.17;100702.05;1701131;84;20194;-52
2021/03/20 11:38:52;;;;;;;;;;;;;;;7.63;61.84;100703.00;1712671;82;20212;-55
2021/03/20 11:41:53;;;;;;;;;;;;;;;7.91;61.97;100698.79;1676651;85;20294;-52
2021/03/20 11:44:57;;;;;;;;;;;;;;;8.14;62.31;100696.48;1708450;83;20350;-52
2021/03/20 11:48:03;;;;;;;;;;;;;;;8.36;61.27;100698.32;1676306;85;20264;-53
2021/03/20 11:51:10;;;;;;;;;;;;;;;8.56;61.28;100689.50;1708561;83;20260;-53
2021/03/20 11:54:36;;;;;;;;;;;;;;;8.61;61.12;100697.55;1708322;84;20211;-52
2021/03/20 11:57:45;;;;;;;;;;;;;;;8.62;61.14;100693.83;1676050;85;20207;-53
2021/03/20 12:00:52;;;;;;;;;;;;;;;8.69;61.08;100688.58;1725766;82;20254;-54
2021/03/20 12:03:59;;;;;;;;;;;;;;;8.80;59.95;100702.02;1696795;83;20344;-53
2021/03/20 12:07:29;;;;;;;;;;;;;;;8.87;59.03;100688.07;1701460;83;20353;-53
2021/03/20 12:10:34;;;;;;;;;;;;;;;8.79;59.09;100686.14;1618830;88;20227;-53
2021/03/20 12:14:02;;;;;;;;;;;;;;;8.51;59.24;100691.33;1619022;88;20258;-52
2021/03/20 12:17:18;;;;;;;;;;;;;;;8.26;59.24;100688.50;1657714;86;20414;-52
2021/03/20 12:20:37;;;;;;;;;;;;;;;8.04;59.32;100688.36;1708412;82;20224;-52
2021/03/20 12:23:41;;;;;;;;;;;;;;;7.92;59.93;100692.81;1677259;84;20202;-52
2021/03/20 12:26:48;;;;;;;;;;;;;;;7.77;60.08;100690.25;1678184;84;20286;-53
2021/03/20 12:29:52;;;;;;;;;;;;;;;7.59;60.44;100697.83;1710004;83;20332;-54
2021/03/20 12:32:58;;;;;;;;;;;;;;;7.42;61.01;100697.25;1677830;84;20283;-53
2021/03/20 12:36:04;;;;;;;;;;;;;;;7.33;61.84;100696.78;1710276;83;20584;-53
2021/03/20 12:39:09;;;;;;;;;;;;;;;7.34;61.95;100691.68;1712093;82;20210;-53
2021/03/20 12:42:15;;;;;;;;;;;;;;;7.37;62.29;100691.91;1755639;80;20241;-52
2021/03/20 12:45:23;;;;;;;;;;;;;;;7.33;62.35;100688.61;1712206;84;20295;-53
2021/03/20 12:48:30;;;;;;;;;;;;;;;7.28;62.71;100690.05;1711106;82;20295;-53
2021/03/20 12:51:35;;;;;;;;;;;;;;;7.26;63.16;100693.45;1712266;84;20312;-53
2021/03/20 12:54:44;;;;;;;;;;;;;;;7.21;63.22;100686.21;1712104;84;20568;-53
2021/03/20 12:57:50;;;;;;;;;;;;;;;7.18;63.61;100695.52;1712096;82;20288;-52
2021/03/20 13:00:53;;;;;;;;;;;;;;;7.13;63.78;100688.31;1712337;83;20288;-52
2021/03/20 13:03:58;;;;;;;;;;;;;;;7.08;64.46;100687.89;1712694;82;20295;-52
2021/03/20 13:07:02;;;;;;;;;;;;;;;6.90;64.43;100688.27;1712690;84;20216;-52
2021/03/20 13:10:06;;;;;;;;;;;;;;;6.76;64.75;100681.91;1712605;84;20285;-52
2021/03/20 13:13:11;;;;;;;;;;;;;;;6.74;65.21;100689.34;1710433;83;20279;-52
2021/03/20 13:16:15;;;;;;;;;;;;;;;6.74;65.36;100685.80;1708111;84;20556;-54
2021/03/20 13:19:20;;;;;;;;;;;;;;;6.60;65.70;100682.98;1708784;82;20211;-52
2021/03/20 13:22:25;;;;;;;;;;;;;;;6.51;65.79;100682.50;1708750;82;20212;-52
2021/03/20 13:25:36;;;;;;;;;;;;;;;6.48;66.22;100677.84;1708497;83;20200;-53
2021/03/20 13:28:41;;;;;;;;;;;;;;;6.53;66.31;100686.43;1712106;82;20277;-52
2021/03/20 13:31:45;;;;;;;;;;;;;;;6.56;66.13;100687.50;1712107;84;20312;-53
2021/03/20 13:34:50;;;;;;;;;;;;;;;6.54;66.47;100686.28;1712096;84;20284;-53
2021/03/20 13:37:55;;;;;;;;;;;;;;;6.51;66.33;100689.30;1711474;82;20316;-52
2021/03/20 13:41:01;;;;;;;;;;;;;;;6.39;66.33;100690.41;1712242;84;20629;-52
2021/03/20 13:44:06;;;;;;;;;;;;;;;6.31;66.62;100694.34;1712118;82;20323;-52
2021/03/20 13:47:11;;;;;;;;;;;;;;;6.21;66.11;100696.69;1712355;84;20216;-52
2021/03/20 13:50:16;;;;;;;;;;;;;;;6.07;66.28;100695.25;1712567;84;20667;-52
2021/03/20 13:53:24;;;;;;;;;;;;;;;5.97;66.56;100700.66;1712536;82;20204;-52
2021/03/20 13:56:29;;;;;;;;;;;;;;;5.88;66.61;100691.13;1711318;84;20272;-53
2021/03/20 13:59:34;;;;;;;;;;;;;;;5.78;66.48;100691.06;1710708;84;20607;-53
2021/03/20 14:02:38;;;;;;;;;;;;;;;5.72;66.46;100694.82;1711106;84;20311;-54
2021/03/20 14:05:46;;;;;;;;;;;;;;;5.67;66.52;100695.23;1711229;84;20297;-53
2021/03/20 14:08:52;;;;;;;;;;;;;;;5.63;66.62;100696.48;1684064;84;20231;-52
2021/03/20 14:11:56;;;;;;;;;;;;;;;5.61;66.85;100696.28;1684160;85;20215;-52
2021/03/20 14:15:01;;;;;;;;;;;;;;;5.62;66.99;100690.70;1684152;85;20265;-55
2021/03/20 14:18:06;;;;;;;;;;;;;;;5.61;67.21;100697.64;1683677;84;20240;-52
2021/03/20 14:21:19;;;;;;;;;;;;;;;5.61;67.47;100685.41;1709897;84;20288;-52
2021/03/20 14:24:18;;;;;;;;;;;;;;;5.66;67.61;100696.73;1711811;82;20212;-52
2021/03/20 14:27:21;;;;;;;;;;;;;;;5.68;67.69;100692.87;1711748;82;20890;-52
2021/03/20 14:30:31;;;;;;;;;;;;;;;5.70;67.71;100695.45;1711585;84;20327;-52
2021/03/20 14:33:39;;;;;;;;;;;;;;;5.72;67.73;100695.66;1712253;82;20224;-52
2021/03/20 14:36:43;;;;;;;;;;;;;;;5.75;67.49;100692.70;1712487;84;20556;-52
2021/03/20 14:39:46;;;;;;;;;;;;;;;5.76;67.45;100690.33;1704240;82;20221;-52
2021/03/20 14:42:50;;;;;;;;;;;;;;;5.78;67.45;100696.98;1696735;83;20225;-52
2021/03/20 14:45:54;;;;;;;;;;;;;;;5.84;67.54;100695.09;1725468;82;20273;-53
2021/03/20 14:49:00;;;;;;;;;;;;;;;5.92;67.63;100688.47;1726569;82;20608;-53
2021/03/20 14:52:03;;;;;;;;;;;;;;;5.98;67.54;100695.58;1725549;83;20277;-53
2021/03/20 14:55:09;;;;;;;;;;;;;;;6.02;67.50;100698.36;1725297;83;20217;-53
2021/03/20 14:58:12;;;;;;;;;;;;;;;6.02;67.37;100701.59;1723651;82;20220;-53
2021/03/20 15:01:17;;;;;;;;;;;;;;;6.03;67.35;100706.02;1723951;83;20289;-53
2021/03/20 15:04:22;;;;;;;;;;;;;;;6.06;67.31;100709.81;1724520;82;20324;-52
2021/03/20 15:07:27;;;;;;;;;;;;;;;6.09;67.15;100702.73;1724512;82;20287;-52
2021/03/20 15:10:43;;;;;;;;;;;;;;;6.08;67.04;100709.19;1723897;83;20229;-52
2021/03/20 15:13:47;;;;;;;;;;;;;;;6.02;66.89;100710.58;1716269;83;20201;-53
2021/03/20 15:16:55;;;;;;;;;;;;;;;5.95;66.89;100710.80;1724136;83;20205;-52
2021/03/20 15:20:01;;;;;;;;;;;;;;;5.89;67.03;100710.48;1721178;82;20249;-52
2021/03/20 15:23:05;;;;;;;;;;;;;;;5.83;67.30;100706.97;1724641;82;20205;-52
2021/03/20 15:26:13;;;;;;;;;;;;;;;5.75;67.50;100707.63;1724638;83;20660;-53
2021/03/20 15:29:18;;;;;;;;;;;;;;;5.70;67.62;100699.52;1725179;82;20629;-53
2021/03/20 15:32:23;;;;;;;;;;;;;;;5.66;67.83;100696.73;1724514;82;20616;-52
2021/03/20 15:35:27;;;;;;;;;;;;;;;5.63;68.00;100701.05;1725826;83;20205;-53
2021/03/20 15:38:32;;;;;;;;;;;;;;;5.58;68.22;100699.27;1725112;82;20273;-52
2021/03/20 15:41:35;;;;;;;;;;;;;;;5.54;68.31;100701.87;1723420;79;20327;-52
2021/03/20 15:44:39;;;;;;;;;;;;;;;5.48;68.50;100702.42;1723976;82;20280;-53
2021/03/20 15:47:43;;;;;;;;;;;;;;;5.42;68.76;100707.05;1718169;83;20332;-52
2021/03/20 15:50:52;;;;;;;;;;;;;;;5.38;68.95;100709.66;1718520;83;20228;-53
2021/03/20 15:53:57;;;;;;;;;;;;;;;5.37;69.08;100718.80;1718427;82;20307;-52
2021/03/20 15:57:03;;;;;;;;;;;;;;;5.31;69.24;100715.28;1714675;82;20208;-53
2021/03/20 16:00:06;;;;;;;;;;;;;;;5.26;69.46;100718.88;1689678;85;20211;-54
2021/03/20 16:03:10;;;;;;;;;;;;;;;5.23;69.64;100725.42;1690283;83;20868;-53
2021/03/20 16:06:15;;;;;;;;;;;;;;;5.23;69.72;100724.58;1697288;82;20236;-53
2021/03/20 16:09:19;;;;;;;;;;;;;;;5.20;69.74;100723.50;1718814;82;20243;-53
2021/03/20 16:12:25;;;;;;;;;;;;;;;5.17;69.82;100725.13;1718514;82;20603;-52
2021/03/20 16:15:30;;;;;;;;;;;;;;;5.11;69.86;100736.48;1718675;83;20327;-53
2021/03/20 16:18:35;;;;;;;;;;;;;;;5.06;70.06;100740.12;1719037;82;20283;-53
2021/03/20 16:21:40;;;;;;;;;;;;;;;4.99;70.27;100737.07;1718263;83;20288;-53
2021/03/20 16:24:48;;;;;;;;;;;;;;;4.95;70.37;100743.73;1717404;83;20284;-54
2021/03/20 16:27:55;;;;;;;;;;;;;;;4.90;70.46;100734.28;1717719;83;20636;-54